Time;durP1;ratioP1;P1;durP2;ratioP2;P2;SDS_P1;SDS_P2;PMS_P1;PMS_P2;Temp;Humidity;BMP_temperature;BMP_pressure;BME280_temperature;BME280_humidity;BME280_pressure;Samples;Min_cycle;Max_cycle;Signal;HPM_P1;HPM_P2
2023/01/26 00:01:08;;;;;;;111.32;43.45;;;1.60;98.00;;;;;;5049160;28;20425;-74
2023/01/26 00:03:34;;;;;;;124.13;46.92;;;1.60;98.10;;;;;;5048909;28;20028;-73
2023/01/26 00:06:08;;;;;;;144.25;53.90;;;1.60;98.00;;;;;;5050626;28;20033;-73
2023/01/26 00:08:38;;;;;;;150.05;53.50;;;1.60;97.80;;;;;;5057014;28;20021;-73
2023/01/26 00:11:04;;;;;;;;;;;1.70;97.90;;;;;;5048909;28;20025;-74
2023/01/26 00:13:30;;;;;;;134.25;46.90;;;1.70;98.00;;;;;;5048616;28;20605;-73
2023/01/26 00:15:55;;;;;;;114.45;43.13;;;1.70;98.10;;;;;;5064494;28;20033;-73
2023/01/26 00:18:21;;;;;;;139.07;52.22;;;1.70;98.10;;;;;;5060455;28;20033;-73
2023/01/26 00:20:47;;;;;;;138.98;51.63;;;1.70;98.00;;;;;;5049033;28;20071;-73
2023/01/26 00:23:13;;;;;;;122.35;46.67;;;1.80;98.00;;;;;;5050960;28;20024;-72
2023/01/26 00:25:39;;;;;;;138.15;51.72;;;1.70;97.90;;;;;;5048828;28;20099;-73
2023/01/26 00:28:05;;;;;;;117.13;44.42;;;1.70;97.90;;;;;;5050019;28;20047;-72
2023/01/26 00:30:30;;;;;;;127.68;49.67;;;1.70;97.90;;;;;;5049018;28;20607;-74
2023/01/26 00:32:56;;;;;;;123.80;48.67;;;1.70;98.00;;;;;;5050248;28;20188;-74
2023/01/26 00:35:22;;;;;;;130.55;49.80;;;1.70;97.90;;;;;;5051439;28;20017;-73
2023/01/26 00:37:48;;;;;;;130.77;51.15;;;1.60;98.00;;;;;;5050010;28;20017;-72
2023/01/26 00:40:14;;;;;;;113.20;44.72;;;1.60;97.90;;;;;;5049737;28;20437;-73
2023/01/26 00:42:39;;;;;;;127.82;48.95;;;1.60;98.00;;;;;;5050225;28;20463;-74
2023/01/26 00:45:05;;;;;;;124.25;49.83;;;1.60;98.00;;;;;;5048717;28;20027;-73
2023/01/26 00:47:31;;;;;;;120.07;45.45;;;1.70;98.10;;;;;;5049254;28;20025;-74
2023/01/26 00:49:56;;;;;;;124.93;49.30;;;1.70;98.10;;;;;;5049999;28;20037;-74
2023/01/26 00:52:22;;;;;;;133.27;48.97;;;1.70;98.00;;;;;;5048597;28;20021;-74
2023/01/26 00:54:47;;;;;;;133.75;52.00;;;1.70;97.90;;;;;;5048931;28;20108;-74
2023/01/26 00:57:13;;;;;;;126.82;48.33;;;1.70;97.80;;;;;;5056049;28;20475;-73
2023/01/26 00:59:39;;;;;;;126.57;49.88;;;1.70;97.80;;;;;;5055970;28;20025;-73
2023/01/26 01:02:04;;;;;;;128.55;50.00;;;1.80;98.00;;;;;;5049824;28;20025;-73
2023/01/26 01:04:30;;;;;;;135.88;48.58;;;1.70;97.80;;;;;;5050428;28;20016;-72
2023/01/26 01:06:57;;;;;;;137.85;54.50;;;1.70;97.70;;;;;;5046388;28;20048;-73
2023/01/26 01:09:22;;;;;;;131.68;48.85;;;1.80;97.70;;;;;;5049429;28;20103;-73
2023/01/26 01:11:48;;;;;;;118.22;46.17;;;1.80;97.70;;;;;;5048555;28;20742;-73
2023/01/26 01:14:15;;;;;;;103.10;42.50;;;1.80;97.80;;;;;;5058292;28;20029;-72
2023/01/26 01:16:41;;;;;;;117.80;47.65;;;1.80;97.80;;;;;;5048891;28;20025;-72
2023/01/26 01:19:07;;;;;;;112.68;45.55;;;1.80;97.90;;;;;;5029594;28;20029;-74
2023/01/26 01:21:35;;;;;;;120.25;48.45;;;1.80;97.90;;;;;;5043150;28;20037;-73
2023/01/26 01:24:00;;;;;;;130.73;49.90;;;1.80;97.80;;;;;;5060307;28;20025;-73
2023/01/26 01:26:26;;;;;;;129.48;48.42;;;1.80;98.00;;;;;;5048560;28;20135;-73
2023/01/26 01:28:56;;;;;;;118.93;48.00;;;1.80;97.70;;;;;;5048786;28;20052;-72
2023/01/26 01:31:22;;;;;;;122.80;46.58;;;1.90;97.70;;;;;;5047652;28;20029;-73
2023/01/26 01:33:48;;;;;;;110.05;45.22;;;1.90;97.70;;;;;;5046161;28;20398;-73
2023/01/26 01:36:15;;;;;;;110.68;43.72;;;1.90;97.60;;;;;;5046674;28;20033;-73
2023/01/26 01:38:44;;;;;;;110.22;44.38;;;1.80;97.60;;;;;;5045949;28;20025;-73
2023/01/26 01:41:10;;;;;;;102.88;42.30;;;1.90;97.60;;;;;;5047335;28;20095;-73
2023/01/26 01:43:36;;;;;;;110.40;43.33;;;1.90;97.50;;;;;;5046697;28;20031;-73
2023/01/26 01:46:25;;;;;;;114.90;43.92;;;1.90;97.60;;;;;;5048009;28;20406;-72
2023/01/26 01:49:15;;;;;;;107.85;45.50;;;2.00;97.60;;;;;;5046778;28;20060;-73
2023/01/26 01:52:12;;;;;;;109.53;42.10;;;2.00;97.60;;;;;;5047090;28;20028;-73
2023/01/26 01:54:47;;;;;;;111.65;42.47;;;2.10;97.50;;;;;;5055201;28;20037;-73
2023/01/26 01:57:26;;;;;;;99.47;37.50;;;2.10;97.40;;;;;;5057467;28;20017;-73
2023/01/26 01:59:57;;;;;;;90.40;37.58;;;2.10;97.40;;;;;;5046234;28;20144;-73
2023/01/26 02:02:22;;;;;;;92.57;38.13;;;2.00;97.40;;;;;;5036253;28;20025;-74
2023/01/26 02:04:49;;;;;;;87.90;35.60;;;2.00;97.40;;;;;;5057822;28;20029;-73
2023/01/26 02:07:14;;;;;;;100.03;41.45;;;1.90;97.50;;;;;;5060605;28;20383;-73
2023/01/26 02:12:31;;;;;;;83.82;33.03;;;1.90;97.60;;;;;;5049442;28;20642;-73
2023/01/26 02:14:57;;;;;;;83.30;34.55;;;1.90;97.50;;;;;;5047876;28;20021;-73
2023/01/26 02:17:23;;;;;;;89.60;37.47;;;1.80;97.60;;;;;;5048712;28;20010;-73
2023/01/26 02:19:55;;;;;;;108.88;41.50;;;1.70;97.60;;;;;;5048647;28;20490;-72
2023/01/26 02:22:52;;;;;;;102.97;40.70;;;1.70;97.70;;;;;;5048651;28;20056;-74
2023/01/26 02:25:39;;;;;;;85.75;34.20;;;1.70;97.80;;;;;;5053311;28;20130;-73
2023/01/26 02:28:05;;;;;;;97.93;38.40;;;1.70;97.80;;;;;;5060707;28;20100;-73
2023/01/26 02:30:31;;;;;;;91.75;35.15;;;1.70;97.80;;;;;;5048112;28;20112;-72
2023/01/26 02:32:57;;;;;;;99.97;40.75;;;1.70;98.10;;;;;;5047890;28;20032;-73
2023/01/26 02:35:23;;;;;;;84.60;33.85;;;1.70;98.10;;;;;;5055966;28;20029;-73
2023/01/26 02:37:48;;;;;;;91.10;36.03;;;1.70;98.10;;;;;;5057949;28;20027;-73
2023/01/26 02:40:17;;;;;;;88.55;35.90;;;1.80;98.10;;;;;;5052184;28;20021;-73
2023/01/26 02:42:43;;;;;;;87.07;36.03;;;1.80;98.00;;;;;;5067972;28;20020;-72
2023/01/26 02:45:12;;;;;;;82.53;33.15;;;1.90;98.00;;;;;;5046825;28;20040;-72
2023/01/26 02:47:39;;;;;;;77.28;31.65;;;1.90;97.80;;;;;;5045778;28;20032;-73
2023/01/26 02:50:08;;;;;;;75.20;33.10;;;1.90;97.80;;;;;;5047816;28;20458;-73
2023/01/26 02:52:34;;;;;;;79.68;32.85;;;1.90;97.90;;;;;;5048510;28;20032;-73
2023/01/26 02:57:45;;;;;;;88.00;34.88;;;1.90;97.80;;;;;;5032826;28;20036;-73
2023/01/26 03:00:17;;;;;;;78.68;32.17;;;1.80;97.80;;;;;;5048427;28;20091;-74
2023/01/26 03:02:44;;;;;;;85.65;35.50;;;1.80;97.80;;;;;;5052306;28;20417;-74
2023/01/26 03:05:10;;;;;;;85.63;33.55;;;1.90;97.90;;;;;;5050666;28;20405;-73
2023/01/26 03:07:36;;;;;;;87.65;34.85;;;1.90;97.80;;;;;;5052193;28;20025;-73
2023/01/26 03:10:02;;;;;;;86.00;33.83;;;1.90;97.80;;;;;;5050517;28;20029;-73
2023/01/26 03:12:28;;;;;;;85.75;33.88;;;1.80;97.90;;;;;;5051866;28;20379;-72
2023/01/26 03:17:38;;;;;;;86.90;33.22;;;1.90;97.90;;;;;;5051823;28;20039;-73
2023/01/26 03:28:21;;;;;;;81.78;33.58;;;1.90;97.70;;;;;;5063566;28;21819;-74
2023/01/26 03:30:54;;;;;;;84.10;31.85;;;1.90;97.80;;;;;;5051994;28;20029;-73
2023/01/26 03:33:20;;;;;;;81.75;32.00;;;1.90;97.90;;;;;;5052669;28;20021;-73
2023/01/26 03:35:46;;;;;;;80.10;30.17;;;2.00;97.80;;;;;;5061995;28;20031;-73
2023/01/26 03:38:12;;;;;;;75.47;28.90;;;2.00;97.90;;;;;;5054649;28;20029;-73
2023/01/26 03:57:05;;;;;;;65.28;27.40;;;2.10;97.60;;;;;;5051714;28;20099;-73
2023/01/26 03:59:39;;;;;;;60.85;25.60;;;2.10;97.60;;;;;;5051422;28;20104;-73
2023/01/26 04:10:22;;;;;;;57.15;24.00;;;2.30;97.60;;;;;;5051991;28;20099;-73
2023/01/26 04:23:46;;;;;;;64.75;26.88;;;2.20;97.60;;;;;;5050037;28;20186;-73
2023/01/26 04:26:13;;;;;;;66.28;27.88;;;2.30;97.60;;;;;;5050681;28;20491;-73
2023/01/26 04:28:39;;;;;;;64.32;27.10;;;2.30;97.60;;;;;;5051346;28;20025;-73
2023/01/26 04:31:05;;;;;;;67.20;27.80;;;2.30;97.60;;;;;;5050323;28;20422;-73
2023/01/26 04:33:30;;;;;;;60.65;26.10;;;2.30;97.60;;;;;;5051226;28;20024;-73
2023/01/26 04:36:01;;;;;;;50.95;23.50;;;2.30;97.60;;;;;;5066864;28;20024;-74
2023/01/26 04:38:27;;;;;;;60.28;24.17;;;2.30;97.70;;;;;;5054465;28;20032;-74
2023/01/26 04:40:55;;;;;;;55.42;23.38;;;2.30;97.60;;;;;;5051359;28;20022;-73
2023/01/26 04:43:20;;;;;;;55.38;24.70;;;2.40;97.60;;;;;;5051386;28;20075;-73
2023/01/26 04:46:04;;;;;;;54.55;24.27;;;2.40;97.40;;;;;;5050640;28;20811;-75
2023/01/26 04:48:30;;;;;;;52.53;25.83;;;2.50;97.40;;;;;;5049395;28;20029;-73
2023/01/26 04:50:58;;;;;;;54.05;24.30;;;2.50;97.20;;;;;;5052490;28;20025;-73
2023/01/26 04:53:24;;;;;;;56.53;25.83;;;2.50;97.50;;;;;;5050928;28;20033;-74
2023/01/26 04:55:50;;;;;;;52.17;23.58;;;2.60;97.20;;;;;;5050681;28;20028;-74
2023/01/26 04:58:16;;;;;;;50.92;22.67;;;2.60;97.10;;;;;;5050555;28;20108;-75
2023/01/26 05:00:42;;;;;;;58.85;24.27;;;2.70;97.00;;;;;;5051789;28;20051;-74
2023/01/26 05:03:07;;;;;;;54.72;24.92;;;2.70;97.00;;;;;;5059979;28;20479;-74
2023/01/26 05:05:37;;;;;;;59.47;26.60;;;2.70;96.80;;;;;;5052558;28;20102;-74
2023/01/26 05:08:05;;;;;;;53.90;25.15;;;2.70;96.80;;;;;;5050863;28;20029;-74
2023/01/26 05:10:32;;;;;;;57.63;26.25;;;2.70;96.80;;;;;;5050963;28;20052;-73
2023/01/26 05:12:58;;;;;;;63.72;26.92;;;2.60;96.80;;;;;;5050041;28;20108;-73
2023/01/26 05:15:24;;;;;;;61.97;26.90;;;2.70;96.90;;;;;;5050017;28;20021;-75
2023/01/26 05:17:49;;;;;;;59.42;25.35;;;2.70;96.90;;;;;;5048532;28;20033;-73
2023/01/26 05:20:16;;;;;;;58.80;24.42;;;2.70;96.90;;;;;;5049867;28;20503;-74
2023/01/26 05:22:42;;;;;;;60.22;26.17;;;2.80;97.00;;;;;;5051682;28;20017;-74
2023/01/26 05:25:08;;;;;;;53.67;25.23;;;2.80;96.90;;;;;;5055125;28;20049;-73
2023/01/26 05:27:33;;;;;;;60.28;25.70;;;2.80;96.90;;;;;;5050197;28;20021;-74
2023/01/26 05:29:59;;;;;;;58.80;27.17;;;2.80;96.90;;;;;;5050141;28;20533;-74
2023/01/26 05:32:26;;;;;;;55.08;25.20;;;2.90;96.90;;;;;;5059037;28;20489;-73
2023/01/26 05:34:52;;;;;;;56.92;25.80;;;2.90;96.80;;;;;;5054952;28;20074;-74
2023/01/26 05:37:18;;;;;;;55.10;25.60;;;2.90;96.70;;;;;;5050786;28;20024;-73
2023/01/26 05:39:44;;;;;;;54.58;25.73;;;3.00;96.70;;;;;;5050266;28;20017;-74
2023/01/26 05:42:11;;;;;;;52.10;25.40;;;3.00;96.60;;;;;;5050737;28;20119;-73
2023/01/26 05:44:36;;;;;;;51.75;25.15;;;3.00;96.60;;;;;;5052142;28;20025;-74
2023/01/26 05:47:02;;;;;;;55.08;25.58;;;3.10;96.60;;;;;;5048682;28;20709;-73
2023/01/26 05:49:28;;;;;;;57.03;25.55;;;3.10;96.60;;;;;;5049079;28;20079;-73
2023/01/26 05:51:54;;;;;;;55.83;25.50;;;3.00;96.60;;;;;;5050873;28;20639;-73
2023/01/26 05:54:20;;;;;;;57.92;25.15;;;3.10;96.60;;;;;;5042777;28;20074;-74
2023/01/26 05:56:46;;;;;;;51.08;23.00;;;3.10;96.60;;;;;;5043741;28;20365;-73
2023/01/26 05:59:13;;;;;;;49.22;21.90;;;3.10;96.60;;;;;;5045790;28;20025;-73
2023/01/26 06:01:38;;;;;;;50.72;23.77;;;3.10;96.60;;;;;;5049041;28;20104;-73
2023/01/26 06:04:04;;;;;;;49.13;22.75;;;3.10;96.60;;;;;;5048624;28;20484;-73
2023/01/26 06:06:30;;;;;;;50.15;22.35;;;3.10;96.50;;;;;;5049289;28;20082;-73
2023/01/26 06:08:57;;;;;;;52.42;24.27;;;3.10;96.60;;;;;;5047957;28;20108;-73
2023/01/26 06:11:22;;;;;;;46.83;21.08;;;3.10;96.60;;;;;;5048507;28;20103;-73
2023/01/26 06:13:48;;;;;;;44.35;19.90;;;3.20;96.60;;;;;;5047350;28;20116;-73
2023/01/26 06:16:16;;;;;;;45.25;20.75;;;3.20;96.50;;;;;;5049942;28;20029;-74
2023/01/26 06:18:41;;;;;;;45.50;22.35;;;3.20;96.40;;;;;;5045655;28;20048;-74
2023/01/26 06:21:08;;;;;;;45.38;20.85;;;3.30;96.40;;;;;;5048834;28;20479;-73
2023/01/26 06:23:33;;;;;;;49.85;21.98;;;3.30;96.30;;;;;;5047090;28;20020;-73
2023/01/26 06:26:00;;;;;;;53.72;25.40;;;3.30;96.20;;;;;;5047139;28;20045;-73
2023/01/26 06:28:27;;;;;;;148.95;72.05;;;3.40;96.30;;;;;;5048773;28;20029;-73
2023/01/26 06:31:04;;;;;;;58.85;27.13;;;3.40;96.20;;;;;;5051567;28;20025;-73
2023/01/26 06:33:33;;;;;;;49.45;22.75;;;3.40;96.20;;;;;;5049990;28;20108;-73
2023/01/26 06:36:04;;;;;;;48.33;23.88;;;3.40;96.10;;;;;;5049330;28;20119;-73
2023/01/26 06:38:30;;;;;;;49.30;23.80;;;3.40;96.00;;;;;;5048663;28;20387;-73
2023/01/26 06:41:01;;;;;;;47.17;22.33;;;3.40;96.00;;;;;;5049183;28;20043;-73
2023/01/26 06:43:29;;;;;;;48.65;23.02;;;3.40;96.10;;;;;;5052437;28;20055;-73
2023/01/26 06:45:59;;;;;;;48.83;23.40;;;3.40;96.10;;;;;;5050991;28;20052;-73
2023/01/26 06:48:26;;;;;;;48.55;22.92;;;3.40;96.20;;;;;;5050504;28;20048;-73
2023/01/26 06:51:02;;;;;;;44.38;21.50;;;3.50;96.20;;;;;;5071747;28;20569;-74
2023/01/26 06:53:38;;;;;;;50.28;23.48;;;3.40;96.20;;;;;;5051715;28;20032;-75
2023/01/26 06:56:04;;;;;;;49.15;21.45;;;3.50;96.30;;;;;;5050406;28;20632;-74
2023/01/26 06:58:30;;;;;;;52.40;23.23;;;3.50;96.50;;;;;;5051793;28;20025;-74
2023/01/26 07:00:56;;;;;;;50.50;24.38;;;3.50;96.30;;;;;;5052951;28;20743;-74
2023/01/26 07:03:23;;;;;;;48.05;21.10;;;3.60;96.30;;;;;;5052459;28;20437;-73
2023/01/26 07:05:48;;;;;;;48.13;23.30;;;3.60;96.40;;;;;;5065818;28;20032;-74
2023/01/26 07:08:14;;;;;;;54.38;25.60;;;3.60;96.30;;;;;;5056283;28;20055;-74
2023/01/26 07:10:40;;;;;;;50.08;22.58;;;3.60;96.10;;;;;;5050599;28;20025;-74
2023/01/26 07:13:06;;;;;;;49.58;21.30;;;3.60;96.10;;;;;;5051765;28;20479;-75
2023/01/26 07:15:32;;;;;;;44.97;20.95;;;3.60;96.10;;;;;;5059503;28;20056;-74
2023/01/26 07:18:00;;;;;;;49.55;22.90;;;3.50;96.10;;;;;;5049877;28;20052;-74
2023/01/26 07:20:26;;;;;;;49.78;23.38;;;3.50;96.40;;;;;;5050180;28;20482;-74
2023/01/26 07:22:54;;;;;;;48.88;22.90;;;3.50;96.30;;;;;;5049326;28;20028;-75
2023/01/26 07:25:19;;;;;;;48.60;21.70;;;3.60;96.30;;;;;;5048772;28;20662;-73
2023/01/26 07:27:45;;;;;;;49.70;23.52;;;3.60;96.30;;;;;;5059409;28;20083;-75
2023/01/26 07:30:14;;;;;;;54.55;25.30;;;3.60;96.20;;;;;;5049971;28;20112;-74
2023/01/26 07:32:41;;;;;;;50.03;23.90;;;3.70;96.20;;;;;;5050889;28;20025;-75
2023/01/26 07:35:07;;;;;;;45.85;20.90;;;3.70;96.20;;;;;;5051471;28;20540;-74
2023/01/26 07:37:33;;;;;;;50.95;23.65;;;3.70;96.20;;;;;;5050581;28;20096;-73
2023/01/26 07:39:59;;;;;;;49.38;20.80;;;3.80;96.20;;;;;;5048919;28;20100;-75
2023/01/26 07:42:24;;;;;;;47.58;21.02;;;3.80;96.10;;;;;;5050301;28;20056;-74
2023/01/26 07:44:50;;;;;;;50.63;20.83;;;3.80;96.10;;;;;;5052210;28;20034;-75
2023/01/26 07:47:15;;;;;;;51.47;22.27;;;3.70;96.10;;;;;;5050094;28;20040;-73
2023/01/26 07:49:41;;;;;;;52.35;23.30;;;3.70;96.10;;;;;;5050356;28;20041;-75
2023/01/26 07:52:08;;;;;;;136.55;53.35;;;3.70;96.20;;;;;;5049668;28;20095;-74
2023/01/26 07:54:33;;;;;;;69.22;29.70;;;3.80;96.40;;;;;;5048863;28;20023;-75
2023/01/26 07:56:59;;;;;;;60.45;25.38;;;3.80;96.30;;;;;;5046578;28;20402;-75
2023/01/26 07:59:25;;;;;;;144.02;57.53;;;3.80;96.30;;;;;;5045047;28;20029;-75
2023/01/26 08:01:51;;;;;;;58.45;27.27;;;3.70;96.30;;;;;;5049976;28;20503;-76
2023/01/26 08:04:17;;;;;;;59.33;28.63;;;3.70;96.40;;;;;;5046527;28;20108;-75
2023/01/26 08:06:43;;;;;;;57.90;26.02;;;3.70;96.50;;;;;;5050300;28;20064;-76
2023/01/26 08:09:09;;;;;;;54.53;25.50;;;3.70;96.50;;;;;;5047574;28;20040;-75
2023/01/26 08:11:35;;;;;;;54.08;24.13;;;3.70;96.50;;;;;;5047724;28;20021;-75
2023/01/26 08:14:01;;;;;;;47.15;19.95;;;3.60;96.60;;;;;;5040822;28;20033;-73
2023/01/26 08:16:26;;;;;;;59.65;26.38;;;3.70;96.90;;;;;;5043309;28;20383;-74
2023/01/26 08:18:53;;;;;;;56.30;25.13;;;3.70;96.90;;;;;;5038525;28;20033;-73
2023/01/26 08:21:19;;;;;;;60.38;25.77;;;3.70;96.90;;;;;;5034438;28;20033;-75
2023/01/26 08:23:49;;;;;;;56.97;22.35;;;3.70;96.80;;;;;;5035459;28;20032;-74
2023/01/26 08:26:16;;;;;;;;;;;3.70;96.90;;;;;;5036941;28;20052;-73
2023/01/26 08:28:42;;;;;;;55.90;23.83;;;3.80;97.00;;;;;;5035635;28;19999;-74
2023/01/26 08:31:16;;;;;;;56.08;24.23;;;3.70;96.90;;;;;;5033292;28;20453;-73
2023/01/26 08:33:42;;;;;;;59.22;23.17;;;3.80;97.10;;;;;;5033137;28;20033;-74
2023/01/26 08:36:11;;;;;;;57.50;23.85;;;3.80;97.10;;;;;;5038930;28;20036;-73
2023/01/26 08:38:37;;;;;;;60.00;24.37;;;3.90;97.10;;;;;;5034333;28;20029;-73
2023/01/26 08:41:03;;;;;;;59.08;24.52;;;3.90;97.10;;;;;;5037912;28;20442;-73
2023/01/26 08:43:29;;;;;;;55.70;22.70;;;3.90;97.20;;;;;;5036359;28;20506;-72
2023/01/26 08:45:55;;;;;;;52.10;20.67;;;4.00;97.20;;;;;;5039534;28;20025;-75
2023/01/26 08:48:21;;;;;;;56.15;23.35;;;4.00;97.10;;;;;;5037206;28;21392;-73
2023/01/26 08:50:47;;;;;;;55.38;22.35;;;4.10;97.20;;;;;;5038285;28;20057;-76
2023/01/26 08:53:13;;;;;;;56.83;22.02;;;4.10;97.10;;;;;;5029387;28;20068;-73
2023/01/26 08:55:38;;;;;;;55.65;23.10;;;4.10;97.10;;;;;;5033501;28;20049;-74
2023/01/26 08:58:04;;;;;;;53.05;22.48;;;4.20;97.00;;;;;;5035208;28;20025;-74
2023/01/26 09:00:30;;;;;;;57.72;24.63;;;4.20;97.20;;;;;;5037954;28;20036;-74
2023/01/26 09:03:00;;;;;;;54.45;22.15;;;4.20;96.90;;;;;;5034728;28;20033;-74
2023/01/26 09:05:27;;;;;;;58.13;23.58;;;4.20;96.90;;;;;;5044726;28;20040;-75
2023/01/26 09:07:52;;;;;;;50.50;22.40;;;4.30;97.00;;;;;;5034850;28;20029;-74
2023/01/26 09:10:18;;;;;;;55.10;21.02;;;4.30;97.00;;;;;;5037174;28;20036;-73
2023/01/26 09:12:44;;;;;;;25.45;11.98;;;4.30;97.00;;;;;;5034420;28;20032;-72
2023/01/26 09:15:10;;;;;;;58.00;23.95;;;4.50;98.70;;;;;;5035886;28;20072;-73
2023/01/26 09:17:36;;;;;;;55.22;22.63;;;4.50;98.30;;;;;;5033464;28;20025;-74
2023/01/26 09:20:03;;;;;;;51.97;22.10;;;4.50;97.80;;;;;;5036224;28;20120;-74
2023/01/26 09:22:30;;;;;;;62.47;23.05;;;4.50;97.40;;;;;;5036043;28;20094;-74
2023/01/26 09:24:56;;;;;;;69.75;26.10;;;4.50;97.20;;;;;;5033638;28;20044;-73
2023/01/26 09:27:22;;;;;;;57.90;25.38;;;4.50;97.00;;;;;;5032558;28;20034;-74
2023/01/26 09:29:49;;;;;;;67.18;24.95;;;4.50;97.00;;;;;;5035128;28;20099;-75
2023/01/26 09:32:15;;;;;;;55.45;23.65;;;4.50;96.90;;;;;;5038524;28;20103;-74
2023/01/26 09:34:41;;;;;;;72.70;27.35;;;4.50;96.80;;;;;;5035003;28;20045;-73
2023/01/26 09:37:09;;;;;;;68.07;24.42;;;4.50;96.80;;;;;;5035782;28;20682;-73
2023/01/26 09:39:34;;;;;;;63.30;26.10;;;4.50;96.90;;;;;;5035459;28;20060;-74
2023/01/26 09:42:00;;;;;;;48.55;21.20;;;4.60;97.00;;;;;;5032756;28;20709;-74
2023/01/26 09:44:29;;;;;;;90.55;25.52;;;4.60;97.20;;;;;;5035807;28;20106;-75
2023/01/26 09:47:14;;;;;;;47.95;20.38;;;4.60;97.10;;;;;;5038773;28;20029;-75
2023/01/26 09:50:03;;;;;;;56.95;22.70;;;4.60;97.10;;;;;;5034224;28;20029;-75
2023/01/26 09:52:32;;;;;;;65.05;25.60;;;4.60;97.20;;;;;;5036865;28;20039;-75
2023/01/26 09:55:03;;;;;;;49.35;22.75;;;4.70;97.30;;;;;;5036922;28;20390;-74
2023/01/26 09:57:49;;;;;;;57.33;23.70;;;4.70;97.20;;;;;;5035753;28;20047;-74
2023/01/26 10:00:29;;;;;;;65.75;25.48;;;4.70;97.30;;;;;;5040969;28;20498;-75
2023/01/26 10:03:02;;;;;;;50.35;22.90;;;4.70;97.30;;;;;;5043108;28;20029;-74
2023/01/26 10:05:34;;;;;;;53.97;20.63;;;4.80;97.30;;;;;;5040218;28;20029;-74
2023/01/26 10:07:59;;;;;;;42.70;19.33;;;4.90;97.40;;;;;;5036222;28;20476;-73
2023/01/26 10:10:40;;;;;;;56.72;23.67;;;5.00;97.40;;;;;;5037516;28;20087;-74
2023/01/26 10:13:08;;;;;;;40.80;18.67;;;5.10;97.40;;;;;;5038178;28;20021;-74
2023/01/26 10:15:41;;;;;;;55.42;21.27;;;5.20;97.30;;;;;;5035079;28;20050;-73
2023/01/26 10:18:20;;;;;;;53.70;19.65;;;5.20;97.20;;;;;;5038032;28;20114;-74
2023/01/26 10:20:50;;;;;;;58.60;21.40;;;5.30;97.20;;;;;;5035843;28;20081;-73
2023/01/26 10:23:26;;;;;;;51.42;18.25;;;5.30;97.10;;;;;;5037428;28;20029;-75
2023/01/26 10:25:55;;;;;;;51.10;18.45;;;5.30;97.20;;;;;;5048134;28;20042;-74
2023/01/26 10:28:29;;;;;;;53.67;19.67;;;5.40;97.20;;;;;;5033753;28;20037;-73
2023/01/26 10:30:55;;;;;;;35.10;14.57;;;5.40;97.50;;;;;;5036910;28;20098;-73
2023/01/26 10:33:26;;;;;;;40.33;17.92;;;5.50;97.70;;;;;;5032537;28;20029;-73
2023/01/26 10:35:52;;;;;;;57.47;16.63;;;5.70;97.60;;;;;;5036348;28;20804;-76
2023/01/26 10:38:36;;;;;;;44.25;15.60;;;6.00;97.40;;;;;;5034319;28;20022;-74
2023/01/26 10:41:06;;;;;;;41.30;14.77;;;6.20;97.00;;;;;;5035820;28;20044;-74
2023/01/26 10:43:36;;;;;;;41.85;14.85;;;6.50;96.70;;;;;;5034173;28;20346;-74
2023/01/26 10:46:03;;;;;;;38.28;13.20;;;6.70;95.90;;;;;;5030044;28;20036;-74
2023/01/26 10:48:29;;;;;;;36.92;12.88;;;6.80;95.20;;;;;;5032560;28;20037;-73
2023/01/26 10:51:14;;;;;;;26.92;12.55;;;6.90;95.40;;;;;;5037011;28;20033;-74
2023/01/26 10:53:40;;;;;;;21.98;11.48;;;7.00;95.40;;;;;;5037630;28;20757;-74
2023/01/26 10:56:12;;;;;;;27.00;13.50;;;7.20;95.20;;;;;;5034172;28;20033;-73
2023/01/26 10:58:41;;;;;;;28.27;10.60;;;7.40;94.90;;;;;;5034354;28;20561;-74
2023/01/26 11:01:13;;;;;;;29.23;14.27;;;7.70;94.60;;;;;;5030037;28;20029;-74
2023/01/26 11:03:39;;;;;;;26.45;10.48;;;7.80;93.90;;;;;;5033005;28;20031;-73
2023/01/26 11:06:15;;;;;;;28.10;11.82;;;8.00;93.90;;;;;;5035097;28;20108;-74
2023/01/26 11:08:41;;;;;;;24.92;12.02;;;8.10;93.60;;;;;;5035709;28;20099;-74
2023/01/26 11:11:25;;;;;;;21.80;11.77;;;8.30;93.70;;;;;;5035077;28;20093;-73
2023/01/26 11:14:15;;;;;;;15.88;8.57;;;8.70;93.30;;;;;;5032365;28;20025;-74
2023/01/26 11:17:05;;;;;;;19.47;9.13;;;9.10;92.80;;;;;;5040008;28;20021;-72
2023/01/26 11:19:48;;;;;;;19.90;10.02;;;9.30;92.30;;;;;;5035220;28;20041;-73
2023/01/26 11:22:23;;;;;;;22.27;10.18;;;9.60;91.80;;;;;;5036265;28;20059;-74
2023/01/26 11:24:54;;;;;;;15.38;8.45;;;9.70;91.60;;;;;;5035916;28;20060;-73
2023/01/26 11:27:41;;;;;;;15.60;8.10;;;9.90;91.50;;;;;;5035227;28;20022;-73
2023/01/26 11:30:13;;;;;;;20.40;9.20;;;10.00;91.30;;;;;;5045829;28;20132;-73
2023/01/26 11:32:57;;;;;;;16.80;8.57;;;10.10;91.70;;;;;;5036287;28;20123;-73
2023/01/26 11:35:34;;;;;;;12.70;7.15;;;10.30;90.90;;;;;;5034389;28;20025;-73
2023/01/26 11:38:12;;;;;;;15.65;7.35;;;10.50;91.40;;;;;;5054752;28;20029;-73
2023/01/26 11:40:47;;;;;;;14.52;7.43;;;10.60;91.10;;;;;;5034294;28;20076;-73
2023/01/26 11:43:21;;;;;;;17.35;9.13;;;10.80;91.20;;;;;;5032967;28;20048;-73
2023/01/26 11:46:02;;;;;;;15.65;8.55;;;10.90;90.70;;;;;;5038081;28;20032;-73
2023/01/26 11:48:33;;;;;;;19.85;9.23;;;11.10;90.70;;;;;;5037273;28;20071;-73
2023/01/26 11:51:06;;;;;;;13.25;7.30;;;11.20;90.90;;;;;;5048648;28;20075;-74
2023/01/26 11:53:49;;;;;;;19.02;7.57;;;11.20;91.00;;;;;;5038497;28;20033;-73
2023/01/26 11:56:30;;;;;;;22.48;8.52;;;11.40;90.60;;;;;;5035469;28;20498;-74
2023/01/26 11:59:12;;;;;;;;;;;11.70;90.30;;;;;;5033762;28;20021;-74
2023/01/26 12:01:42;;;;;;;16.52;8.38;;;12.00;90.30;;;;;;5035442;28;19932;-75
2023/01/26 12:04:17;;;;;;;19.38;7.97;;;12.20;89.30;;;;;;5038399;28;20498;-75
2023/01/26 12:06:45;;;;;;;18.52;7.00;;;12.50;89.20;;;;;;5038825;28;20868;-75
2023/01/26 12:09:20;;;;;;;15.77;7.25;;;12.80;88.40;;;;;;5036990;28;20494;-74
2023/01/26 12:11:49;;;;;;;20.00;8.38;;;12.90;87.80;;;;;;5037471;28;20082;-73
2023/01/26 12:14:21;;;;;;;18.55;7.93;;;13.10;86.40;;;;;;5039111;28;20041;-74
2023/01/26 12:17:16;;;;;;;16.52;6.47;;;13.10;86.80;;;;;;5035061;28;20032;-74
2023/01/26 12:20:03;;;;;;;18.10;8.43;;;13.30;87.30;;;;;;5032183;28;20028;-73
2023/01/26 12:22:39;;;;;;;11.63;5.40;;;13.30;88.00;;;;;;5032009;28;20036;-71
2023/01/26 12:25:34;;;;;;;21.08;7.93;;;13.30;90.10;;;;;;5035147;28;20045;-72
2023/01/26 12:27:59;;;;;;;14.40;5.72;;;13.30;88.90;;;;;;5036572;28;20072;-73
2023/01/26 12:30:56;;;;;;;21.10;6.25;;;13.40;91.10;;;;;;5035064;28;20601;-74
2023/01/26 12:33:22;;;;;;;21.70;6.93;;;13.40;91.50;;;;;;5033458;28;20565;-74
2023/01/26 12:36:15;;;;;;;22.00;5.72;;;13.70;90.20;;;;;;5032601;28;20029;-74
2023/01/26 12:39:02;;;;;;;16.02;5.75;;;13.70;90.30;;;;;;5034728;28;20033;-74
2023/01/26 12:42:10;;;;;;;19.70;6.30;;;13.80;89.80;;;;;;5033360;28;20119;-75
2023/01/26 12:44:49;;;;;;;24.45;5.65;;;13.90;92.90;;;;;;5036760;28;20029;-73
2023/01/26 12:47:33;;;;;;;21.83;5.45;;;14.00;91.70;;;;;;5035764;28;20104;-73
2023/01/26 12:50:20;;;;;;;16.98;5.70;;;14.00;94.00;;;;;;5033795;28;20037;-74
2023/01/26 12:52:54;;;;;;;16.08;3.80;;;14.00;94.60;;;;;;5032200;28;20029;-75
2023/01/26 12:55:42;;;;;;;15.65;3.75;;;14.20;92.20;;;;;;5034796;28;20036;-75
2023/01/26 12:58:25;;;;;;;18.20;4.28;;;14.30;91.10;;;;;;5033357;28;20046;-74
2023/01/26 13:01:17;;;;;;;17.42;5.55;;;14.40;92.20;;;;;;5031498;28;20112;-72
2023/01/26 13:03:50;;;;;;;17.50;4.47;;;14.40;94.30;;;;;;5033165;28;20032;-73
2023/01/26 13:06:20;;;;;;;16.52;4.93;;;14.50;92.70;;;;;;5033749;28;20553;-75
2023/01/26 13:09:17;;;;;;;15.27;4.28;;;14.70;93.60;;;;;;5042226;28;20443;-76
2023/01/26 13:11:51;;;;;;;16.52;4.53;;;14.70;93.40;;;;;;5037710;28;20033;-74
2023/01/26 13:14:30;;;;;;;15.52;4.57;;;14.70;94.90;;;;;;5034057;28;20091;-75
2023/01/26 13:17:17;;;;;;;17.52;4.68;;;14.80;95.80;;;;;;5031946;28;20108;-74
2023/01/26 13:19:43;;;;;;;14.27;4.07;;;15.00;95.10;;;;;;5033958;28;20356;-74
2023/01/26 13:22:18;;;;;;;15.85;3.03;;;15.00;92.00;;;;;;5030605;28;20029;-73
2023/01/26 13:25:25;;;;;;;15.55;3.85;;;14.70;90.40;;;;;;5037358;28;20049;-73
2023/01/26 13:27:57;;;;;;;12.18;4.28;;;14.40;92.30;;;;;;5048581;28;20025;-74
2023/01/26 13:30:22;;;;;;;20.30;4.22;;;14.10;94.40;;;;;;5041584;28;20120;-74
2023/01/26 13:32:48;;;;;;;21.90;4.35;;;13.80;92.40;;;;;;5045716;28;20752;-72
2023/01/26 13:35:19;;;;;;;14.25;3.05;;;13.60;93.30;;;;;;5041400;28;20040;-74
2023/01/26 13:38:05;;;;;;;13.27;3.25;;;13.30;90.70;;;;;;5050045;28;20029;-74
2023/01/26 13:40:43;;;;;;;15.30;3.47;;;13.20;92.00;;;;;;5033796;28;20161;-72
2023/01/26 13:43:35;;;;;;;11.57;2.75;;;13.00;90.90;;;;;;5045734;28;20770;-74